hwlogo.jpg (8581 bytes)
Home Your Weather Products Services Weather On Your Site Contact
HW Version Logo
Weather Info
Your Weather (Options)
Canadian Weather
International Weather
Enter your " Place, State", US Zip Code or ICAO:  
Forecast Information Radar Information
Tofino, British Columbia, Canada  Lat: 49.10N, Lon: 125.8W
ICAO Used: CYAZ
Current Conditions
Updated: 1:00 PM EST THU FEB 22 2018
Sun & Moon Information
Clear
Clear
Temp: 2°C
Humidity: 74%
Wind Speed: ESE 3 MPH
Barometer: 1028 mb
Dewpoint: -2°C
Heat Index: 2°C
Wind Chill: 0°C
Civil Twilight: 9:49 AM EST Moon Phase:
Waxing Gibbous Moon
Sunrise: 10:21 AM EST
Sunset: 8:51 PM EST
Civil Twilight: 9:23 PM EST
Forecast for Tofino, BC:
(Forecast based on TAF for )
0700 PM EST WED FEB 21 2018
  
AFTERNOON EVENING OVERNIGHT
Mostly
Cloudy
Mostly
Cloudy
Mostly
Cloudy
ZoneCast:
Dated: 0700 PM EST WED FEB 21 2018
Afternoon...Turning mostly cloudy with winds from the northwest at 6 mph.

Evening...Mostly cloudy with winds from the northwest at 6 mph.

Overnight...Mostly cloudy with winds from the northwest at 6 mph.

Original Encoded TAF:
Dated: 0700 PM EST WED FEB 21 2018
2018/02/22 18:30
TAF 
      AMD CYAZ 211806Z 2118/2201 VRB03KT P6SM SCT025 BKN050 
      TEMPO 2118/2121 1SM -SHSN BKN020 
     FM212100 32005KT P6SM BKN025 
      TEMPO 2121/2201 5SM -RASN BR BKN020 
      RMK NXT FCST WILL BE ISSUED AT 221645Z